Flight Track Log - Related Links

Times and Time Zones

All times are in EDT time to prevent confusion due to time zone crossing. See the CHH7123 flight status page for this flight to view local times or setup timezone preferences in your user account.

Time Position Orientation Groundspeed Altitude Reporting Facility
EDT Latitude Longitude Course Direction KTS MPH feet Rate Location/Type
Fri 08:46:00 AM 41.5470 120.2406 61° Northeast  Level Estimated
Fri 08:47:00 AM 41.6056 120.3964 63° Northeast  Level Estimated
Fri 08:48:00 AM 41.6640 120.5526 63° Northeast  Level Estimated
Fri 08:49:00 AM 41.7221 120.7090 63° Northeast  Level Estimated
Fri 08:50:00 AM 41.7800 120.8657 64° Northeast  Level Estimated
Fri 08:51:00 AM 41.8378 121.0227 64° Northeast  Level Estimated
Fri 08:52:00 AM 41.8953 121.1799 64° Northeast  Level Estimated
Fri 08:53:00 AM 41.9526 121.3375 64° Northeast  Level Estimated
Fri 08:54:00 AM 42.0097 121.4953 64° Northeast  Level Estimated
Fri 08:55:00 AM 42.0665 121.6534 64° Northeast  Level Estimated
Fri 08:56:00 AM 42.1232 121.8118 64° Northeast  Level Estimated
Fri 08:57:00 AM 42.1796 121.9705 64° Northeast  Level Estimated
Fri 08:58:00 AM 42.2358 122.1295 64° Northeast  Level Estimated
Fri 08:59:00 AM 42.2918 122.2887 65° Northeast  Level Estimated
Fri 09:00:00 AM 42.3476 122.4483 65° Northeast  Level Estimated
Fri 09:01:00 AM 42.4031 122.6081 65° Northeast  Level Estimated
Fri 09:02:00 AM 42.4584 122.7682 65° Northeast  Level Estimated
Fri 09:03:00 AM 42.5135 122.9286 65° Northeast  Level Estimated
Fri 09:04:00 AM 42.5684 123.0892 65° Northeast  Level Estimated
Fri 09:05:00 AM 42.6231 123.2502 65° Northeast  Level Estimated
Fri 09:06:00 AM 42.6775 123.4114 65° Northeast  Level Estimated
Fri 09:07:00 AM 42.7317 123.5729 65° Northeast  Level Estimated
Fri 09:08:00 AM 42.7857 123.7347 66° East  Level Estimated
Fri 09:09:00 AM 42.8394 123.8968 66° East  Level Estimated
Fri 09:10:00 AM 42.8929 124.0591 66° East  Level Estimated
Fri 09:11:00 AM 42.9462 124.2217 66° East  Level Estimated
Fri 09:12:00 AM 42.9993 124.3847 66° East  Level Estimated
Fri 09:13:00 AM 43.0521 124.5479 66° East  Level Estimated
Fri 09:14:00 AM 43.1047 124.7113 66° East  Level Estimated
Fri 09:15:00 AM 43.1571 124.8751 66° East  Level Estimated
Fri 09:16:00 AM 43.2092 125.0391 66° East  Level Estimated
Fri 09:17:00 AM 43.2611 125.2035 67° East  Level Estimated
Fri 09:18:00 AM 43.3127 125.3681 67° East  Level Estimated
Fri 09:19:00 AM 43.3641 125.5330 67° East  Level Estimated
Fri 09:20:00 AM 43.4153 125.6981 67° East  Level Estimated
Fri 09:21:00 AM 43.4663 125.8635 67° East  Level Estimated
Fri 09:22:00 AM 43.5169 126.0293 67° East  Level Estimated
Fri 09:23:00 AM 43.5674 126.1953 67° East  Level Estimated
Fri 09:24:00 AM 43.6176 126.3615 67° East  Level Estimated
Fri 09:25:00 AM 43.6676 126.5281 67° East  Level Estimated
Fri 09:26:00 AM 43.7174 126.6949 68° East  Level Estimated
Fri 09:27:00 AM 43.7668 126.8620 68° East  Level Estimated
Fri 09:28:00 AM 43.8161 127.0294 68° East  Level Estimated
Fri 09:29:00 AM 43.8651 127.1970 68° East  Level Estimated
Fri 09:30:00 AM 43.9139 127.3650 68° East  Level Estimated
Fri 09:31:00 AM 43.9624 127.5331 68° East  Level Estimated
Fri 09:32:00 AM 44.0107 127.7016 68° East  Level Estimated
Fri 09:33:00 AM 44.0587 127.8704 68° East  Level Estimated
Fri 09:34:00 AM 44.1064 128.0394 68° East  Level Estimated
Fri 09:35:00 AM 44.1540 128.2087 69° East  Level Estimated
Fri 09:36:00 AM 44.2012 128.3783 69° East  Level Estimated
Fri 09:37:00 AM 44.2483 128.5481 69° East  Level Estimated
Fri 09:38:00 AM 44.2950 128.7182 69° East  Level Estimated
Fri 09:39:00 AM 44.3415 128.8886 69° East  Level Estimated
Fri 09:40:00 AM 44.3878 129.0592 69° East  Level Estimated
Fri 09:41:00 AM 44.4338 129.2302 69° East  Level Estimated
Fri 09:42:00 AM 44.4796 129.4014 69° East  Level Estimated
Fri 09:43:00 AM 44.5241 129.5690 70° East  Level Estimated
Fri 09:44:00 AM 44.5241 129.5690 35° Northeast  Level Estimated
Fri 09:45:00 AM 44.5241 129.5690 35° Northeast  Level Estimated
Fri 09:46:00 AM 44.5241 129.5690 35° Northeast  Level Estimated
Fri 09:47:00 AM 44.5241 129.5690 35° Northeast  Level Estimated
Fri 09:48:00 AM 44.5241 129.5690 35° Northeast  Level Estimated
Fri 09:49:00 AM 44.5241 129.5690 35° Northeast  Level Estimated
Fri 09:50:00 AM 44.5241 129.5690 35° Northeast  Level Estimated
Fri 09:51:00 AM 44.5241 129.5690 35° Northeast  Level Estimated
Fri 09:52:00 AM 44.5241 129.5690 35° Northeast  Level Estimated
Fri 09:53:00 AM 44.5241 129.5690 35° Northeast  Level Estimated
Fri 09:54:00 AM 44.5241 129.5690 35° Northeast  Level Estimated
Fri 09:55:00 AM 44.5241 129.5690 35° Northeast  Level Estimated
Fri 09:56:00 AM 44.5241 129.5690 35° Northeast  Level Estimated
Fri 09:57:00 AM 44.5241 129.5690 35° Northeast  Level Estimated
Fri 09:58:00 AM 44.5241 129.5690 35° Northeast  Level Estimated
Fri 09:59:00 AM 44.5241 129.5690 35° Northeast  Level Estimated

Login

Don't have an account? Register now (free) for customized features, flight alerts, and more!